Time;durP1;ratioP1;P1;durP2;ratioP2;P2;SDS_P1;SDS_P2;PMS_P1;PMS_P2;Temp;Humidity;BMP_temperature;BMP_pressure;BME280_temperature;BME280_humidity;BME280_pressure;Samples;Min_cycle;Max_cycle;Signal;HPM_P1;HPM_P2
2023/03/14 00:02:31;;;;;;;1.53;1.37;;;;;;;14.31;65.33;97197.56;7027591;28;20852;-81
2023/03/14 00:05:53;;;;;;;1.90;1.80;;;;;;;14.24;65.22;97197.03;7027930;28;20275;-81
2023/03/14 00:09:14;;;;;;;1.80;1.70;;;;;;;13.94;66.29;97163.53;7028032;28;20257;-81
2023/03/14 00:12:36;;;;;;;3.40;1.93;;;;;;;13.67;67.40;97136.63;7034661;28;20229;-81
2023/03/14 00:16:04;;;;;;;3.13;1.83;;;;;;;13.90;66.86;97138.06;7053254;28;20266;-81
2023/03/14 00:19:25;;;;;;;1.90;1.80;;;;;;;14.40;65.80;97181.59;7055438;28;20214;-80
2023/03/14 00:22:47;;;;;;;1.90;1.70;;;;;;;14.49;64.73;97158.28;7054851;28;20235;-80
2023/03/14 00:26:11;;;;;;;1.70;1.60;;;;;;;14.51;64.33;97134.44;7054672;28;20239;-81
2023/03/14 00:29:32;;;;;;;1.60;1.50;;;;;;;14.78;63.63;97154.78;7054880;28;20361;-81
2023/03/14 00:32:55;;;;;;;3.37;1.70;;;;;;;14.88;62.89;97127.66;7054645;28;20313;-81
2023/03/14 00:36:17;;;;;;;1.17;1.10;;;;;;;14.46;63.44;97086.41;7054654;28;20623;-81
2023/03/14 00:39:39;;;;;;;1.67;1.50;;;;;;;14.37;64.06;97112.47;7053329;28;20210;-81
2023/03/14 00:43:00;;;;;;;1.67;1.57;;;;;;;14.01;64.77;97078.22;7054603;28;20350;-81
2023/03/14 00:46:22;;;;;;;1.70;1.60;;;;;;;14.40;64.81;97135.50;7054330;28;20277;-81
2023/03/14 00:49:45;;;;;;;1.70;1.60;;;;;;;14.35;64.74;97132.78;7054076;28;20254;-81
2023/03/14 00:53:06;;;;;;;1.30;1.30;;;;;;;14.34;64.53;97131.97;7054033;28;20700;-81
2023/03/14 00:56:28;;;;;;;1.40;1.30;;;;;;;14.78;62.93;97129.53;7053836;28;20272;-81
2023/03/14 00:59:49;;;;;;;1.60;1.50;;;;;;;15.06;61.64;97132.50;7053759;28;20218;-81
2023/03/14 01:03:12;;;;;;;1.57;1.47;;;;;;;15.12;61.27;97141.44;7054302;28;20248;-81
2023/03/14 01:06:35;;;;;;;2.60;1.30;;;;;;;14.74;61.67;97115.72;7053975;28;20219;-81
2023/03/14 01:09:56;;;;;;;1.70;1.60;;;;;;;14.62;61.79;97115.16;7053107;28;20653;-81
2023/03/14 01:13:18;;;;;;;1.40;1.30;;;;;;;14.74;61.87;97150.19;7054331;28;20215;-81
2023/03/14 01:16:39;;;;;;;1.43;1.33;;;;;;;15.24;59.59;97152.84;7053315;28;20258;-81
2023/03/14 01:20:03;;;;;;;2.80;1.30;;;;;;;15.25;59.36;97159.88;7053546;28;20304;-81
2023/03/14 01:23:28;;;;;;;1.23;1.13;;;;;;;15.07;58.68;97098.03;7056510;28;20668;-81
2023/03/14 01:26:49;;;;;;;1.30;1.20;;;;;;;15.33;58.92;97154.75;7048563;28;20692;-81
2023/03/14 01:30:13;;;;;;;1.20;1.20;;;;;;;15.52;58.41;97131.31;7026261;28;20271;-81
2023/03/14 01:33:34;;;;;;;1.10;1.10;;;;;;;15.67;57.66;97111.44;7047394;28;20312;-81
2023/03/14 01:36:55;;;;;;;1.20;1.20;;;;;;;15.93;56.86;97094.75;7054105;28;20297;-79
2023/03/14 01:40:19;;;;;;;1.23;1.20;;;;;;;16.12;56.32;97094.91;7052706;28;20230;-79
2023/03/14 01:43:40;;;;;;;1.27;1.27;;;;;;;15.95;56.21;97076.25;7032807;28;20199;-79
2023/03/14 01:47:02;;;;;;;1.30;1.30;;;;;;;15.44;57.88;97082.19;7025770;28;20293;-79
2023/03/14 01:50:23;;;;;;;1.53;1.20;;;;;;;15.42;57.57;97066.19;7024707;28;20227;-79
2023/03/14 01:53:45;;;;;;;1.20;1.20;;;;;;;15.35;58.19;97059.44;7027494;28;20271;-79
2023/03/14 01:57:11;;;;;;;1.20;1.20;;;;;;;15.03;58.81;97048.09;7028130;28;20203;-79
2023/03/14 02:00:33;;;;;;;1.20;1.20;;;;;;;14.97;58.85;97046.47;7028106;28;20370;-80
2023/03/14 02:03:56;;;;;;;1.10;1.10;;;;;;;14.80;59.21;97029.72;7025550;28;20205;-80
2023/03/14 02:07:20;;;;;;;1.37;1.37;;;;;;;14.89;59.38;97023.44;7024573;28;20284;-80
2023/03/14 02:10:44;;;;;;;1.30;1.20;;;;;;;15.04;58.37;97058.69;7023550;28;20831;-79
2023/03/14 02:14:08;;;;;;;1.63;1.53;;;;;;;14.27;59.67;97041.16;7027049;28;20326;-80
2023/03/14 02:17:31;;;;;;;1.40;1.30;;;;;;;14.67;59.07;97041.94;7023937;28;20210;-80
2023/03/14 02:20:55;;;;;;;3.20;1.30;;;;;;;14.64;59.27;97047.09;7023877;28;20269;-79
2023/03/14 02:24:23;;;;;;;1.33;1.33;;;;;;;14.82;58.05;97022.91;7024292;28;20705;-80
2023/03/14 02:27:46;;;;;;;1.00;1.00;;;;;;;14.97;57.79;97041.03;7024343;28;20366;-80
2023/03/14 02:31:08;;;;;;;1.20;1.10;;;;;;;14.73;58.06;97032.72;7023472;28;20325;-79
2023/03/14 02:34:31;;;;;;;1.20;1.20;;;;;;;14.90;57.34;97007.97;7023669;28;20347;-80
2023/03/14 02:37:54;;;;;;;1.60;1.40;;;;;;;14.79;57.11;97001.75;7023891;28;20205;-80
2023/03/14 02:41:16;;;;;;;1.23;1.23;;;;;;;14.73;58.11;97008.28;7026279;28;20294;-80
2023/03/14 02:44:50;;;;;;;1.30;1.20;;;;;;;14.99;56.92;96998.19;7029624;28;20347;-80
2023/03/14 02:48:17;;;;;;;1.07;1.07;;;;;;;15.11;56.76;97015.75;7029396;28;20235;-80
2023/03/14 02:51:39;;;;;;;1.20;1.20;;;;;;;15.15;56.19;97002.47;7028738;28;20300;-80
2023/03/14 02:55:00;;;;;;;1.30;1.20;;;;;;;14.85;56.54;96953.72;7028815;28;20239;-80
2023/03/14 02:58:22;;;;;;;1.70;1.60;;;;;;;15.28;55.87;97012.75;7029183;28;20260;-80
2023/03/14 03:01:45;;;;;;;1.17;1.17;;;;;;;15.25;56.01;96994.28;7028191;28;20295;-79
2023/03/14 03:05:07;;;;;;;1.40;1.33;;;;;;;15.17;55.71;96981.28;7029089;28;20245;-80
2023/03/14 03:08:29;;;;;;;1.13;1.10;;;;;;;15.50;55.36;96983.31;7028361;28;20316;-80
2023/03/14 03:11:51;;;;;;;2.63;2.43;;;;;;;14.67;56.65;96948.91;7028007;28;20318;-80
2023/03/14 03:15:12;;;;;;;2.33;2.13;;;;;;;14.79;57.07;96973.81;7027122;28;20275;-80
2023/03/14 03:18:45;;;;;;;1.10;1.10;;;;;;;14.80;56.86;96942.91;7029111;28;20575;-80
2023/03/14 03:22:07;;;;;;;2.07;1.30;;;;;;;14.51;57.04;96903.94;7028273;28;20593;-80
2023/03/14 03:25:29;;;;;;;1.33;1.30;;;;;;;14.46;57.28;96882.25;7028805;28;20209;-80
2023/03/14 03:28:51;;;;;;;1.50;1.40;;;;;;;14.92;56.42;96930.63;7028713;28;20289;-79
2023/03/14 03:32:13;;;;;;;1.30;1.30;;;;;;;15.11;55.92;96950.63;7027651;28;20302;-80
2023/03/14 03:35:36;;;;;;;1.17;1.17;;;;;;;14.73;56.78;96918.78;7030604;28;20207;-80
2023/03/14 03:38:57;;;;;;;2.20;2.00;;;;;;;14.16;58.68;96934.59;7031254;28;20253;-80
2023/03/14 03:42:19;;;;;;;2.80;1.40;;;;;;;13.63;59.32;96924.31;7027788;28;20226;-80
2023/03/14 03:45:41;;;;;;;2.43;2.20;;;;;;;13.98;57.92;96924.31;7028672;28;20242;-80
2023/03/14 03:49:02;;;;;;;1.83;1.47;;;;;;;14.15;57.46;96902.38;7028789;28;20651;-80
2023/03/14 03:52:25;;;;;;;1.80;1.40;;;;;;;14.01;57.44;96918.38;7027802;28;20239;-79
2023/03/14 03:55:47;;;;;;;1.70;1.60;;;;;;;14.06;57.27;96912.13;7028204;28;20236;-80
2023/03/14 03:59:08;;;;;;;1.50;1.50;;;;;;;14.30;57.22;96915.91;7052068;28;20205;-80
2023/03/14 04:02:30;;;;;;;1.57;1.57;;;;;;;14.56;55.69;96922.88;7056055;28;20238;-80
2023/03/14 04:05:59;;;;;;;1.57;1.47;;;;;;;14.73;55.24;96926.91;7056668;28;20209;-80
2023/03/14 04:09:22;;;;;;;3.07;1.50;;;;;;;14.59;55.03;96915.03;7056703;28;20213;-80
2023/03/14 04:12:43;;;;;;;1.97;1.40;;;;;;;14.91;54.54;96928.19;7054444;28;20308;-80
2023/03/14 04:16:12;;;;;;;2.43;1.90;;;;;;;14.17;55.80;96930.00;7030316;28;20201;-79
2023/03/14 04:19:33;;;;;;;2.33;1.90;;;;;;;14.41;54.88;96907.50;7027181;28;20210;-80
2023/03/14 04:22:55;;;;;;;1.77;1.67;;;;;;;14.20;55.33;96932.19;7027853;28;20309;-80
2023/03/14 04:26:18;;;;;;;1.70;1.60;;;;;;;14.57;53.95;96890.06;7026749;28;20236;-80
2023/03/14 04:29:39;;;;;;;2.47;1.50;;;;;;;14.62;53.67;96921.81;7026820;28;20222;-80
2023/03/14 04:33:01;;;;;;;3.10;1.90;;;;;;;14.73;52.92;96931.50;7027633;28;20698;-80
2023/03/14 04:36:23;;;;;;;3.57;2.00;;;;;;;14.62;53.44;96925.31;7027024;28;20279;-80
2023/03/14 04:39:44;;;;;;;3.97;2.50;;;;;;;14.46;53.51;96920.22;7027391;28;20830;-80
2023/03/14 04:43:07;;;;;;;3.10;1.97;;;;;;;14.86;52.70;96906.53;7027390;28;20274;-80
2023/03/14 04:46:29;;;;;;;2.40;1.70;;;;;;;14.13;54.46;96901.81;7027227;28;20199;-80
2023/03/14 04:49:50;;;;;;;1.77;1.57;;;;;;;14.65;53.24;96892.22;7026779;28;20224;-80
2023/03/14 04:53:12;;;;;;;2.53;1.50;;;;;;;14.90;52.23;96896.72;7027142;28;20365;-80
2023/03/14 04:56:33;;;;;;;2.70;1.47;;;;;;;15.07;51.66;96872.75;7026446;28;20280;-80
2023/03/14 04:59:56;;;;;;;3.00;1.73;;;;;;;14.45;53.52;96891.50;7027296;28;20266;-80
2023/03/14 05:03:18;;;;;;;3.00;1.60;;;;;;;14.64;53.51;96866.19;7028141;28;20349;-80
2023/03/14 05:06:42;;;;;;;2.10;1.40;;;;;;;14.67;52.62;96846.66;7025928;28;20344;-80
2023/03/14 05:10:04;;;;;;;1.70;1.60;;;;;;;14.90;52.39;96862.28;7025959;28;20228;-80
2023/03/14 05:13:26;;;;;;;3.13;2.83;;;;;;;14.82;52.26;96862.84;7042598;28;20292;-80
2023/03/14 05:16:48;;;;;;;2.33;1.87;;;;;;;14.67;52.68;96864.81;7051721;28;20213;-80
2023/03/14 05:20:12;;;;;;;6.63;3.90;;;;;;;14.45;53.10;96865.16;7052323;28;20773;-80
2023/03/14 05:23:34;;;;;;;3.33;2.10;;;;;;;14.88;51.91;96866.34;7052775;28;20570;-80
2023/03/14 05:26:55;;;;;;;1.70;1.60;;;;;;;14.96;51.78;96852.19;7053154;28;20208;-78
2023/03/14 05:30:17;;;;;;;4.40;1.70;;;;;;;14.47;51.71;96837.78;7052039;28;20214;-82
2023/03/14 05:33:40;;;;;;;2.73;1.80;;;;;;;14.56;51.70;96860.50;7048160;28;20208;-82
2023/03/14 05:37:02;;;;;;;1.70;1.60;;;;;;;14.83;51.44;96850.94;7052565;28;20277;-79
2023/03/14 05:40:23;;;;;;;2.93;1.80;;;;;;;14.53;51.52;96842.09;7051888;28;20722;-80
2023/03/14 05:43:45;;;;;;;3.33;2.03;;;;;;;14.37;51.56;96830.50;7051903;28;20218;-79
2023/03/14 05:47:06;;;;;;;2.27;2.07;;;;;;;14.40;52.14;96832.66;7052189;28;20292;-80
2023/03/14 05:50:29;;;;;;;2.60;1.80;;;;;;;14.43;52.12;96844.84;7054683;28;20228;-83
2023/03/14 05:53:51;;;;;;;2.43;1.60;;;;;;;14.19;52.33;96793.16;7054113;28;20202;-82
2023/03/14 05:57:13;;;;;;;1.83;1.70;;;;;;;14.16;52.40;96790.16;7053205;28;20724;-82
2023/03/14 06:00:34;;;;;;;2.00;1.80;;;;;;;14.42;52.15;96829.66;7048887;28;20357;-82
2023/03/14 06:03:56;;;;;;;3.53;1.77;;;;;;;14.76;51.35;96834.13;7053142;28;20736;-82
2023/03/14 06:07:19;;;;;;;3.30;1.80;;;;;;;14.85;51.06;96831.63;7053248;28;20215;-82
2023/03/14 06:10:41;;;;;;;1.53;1.50;;;;;;;15.05;50.09;96826.91;7051645;28;20670;-82
2023/03/14 06:14:02;;;;;;;3.13;1.87;;;;;;;15.22;49.58;96821.91;7048017;28;20212;-83
2023/03/14 06:17:24;;;;;;;3.37;1.50;;;;;;;15.05;49.35;96826.09;7029749;28;20235;-80
2023/03/14 06:20:46;;;;;;;2.67;1.50;;;;;;;14.74;49.99;96846.38;7028796;28;20226;-80
2023/03/14 06:24:09;;;;;;;3.57;1.80;;;;;;;14.98;49.62;96839.97;7028091;28;20267;-80
2023/03/14 06:27:45;;;;;;;3.93;1.83;;;;;;;14.50;50.13;96791.94;7029403;28;20226;-80
2023/03/14 06:31:07;;;;;;;4.60;2.10;;;;;;;14.74;49.38;96784.78;7018328;28;20225;-80
2023/03/14 06:34:29;;;;;;;1.90;1.77;;;;;;;14.99;48.67;96781.88;7029527;28;20734;-78
2023/03/14 06:37:51;;;;;;;2.53;1.80;;;;;;;15.49;47.94;96830.44;7052617;28;20291;-80
2023/03/14 06:41:13;;;;;;;1.77;1.60;;;;;;;15.18;48.37;96814.63;7037151;28;20367;-79
2023/03/14 06:44:35;;;;;;;3.23;1.70;;;;;;;15.25;48.00;96812.38;7029232;28;20201;-79
2023/03/14 06:47:56;;;;;;;3.67;1.67;;;;;;;14.80;49.33;96826.25;7028553;28;20223;-79
2023/03/14 06:51:18;;;;;;;2.30;1.50;;;;;;;15.30;47.12;96806.91;7028144;28;20347;-80
2023/03/14 06:54:39;;;;;;;2.90;1.60;;;;;;;15.04;48.33;96819.84;7030113;28;20229;-80
2023/03/14 06:58:02;;;;;;;3.40;1.67;;;;;;;15.22;47.95;96827.34;7029046;28;20214;-80
2023/03/14 07:01:26;;;;;;;1.70;1.60;;;;;;;16.50;45.77;96832.97;7028052;28;20292;-80
2023/03/14 07:04:47;;;;;;;2.23;1.70;;;;;;;16.40;44.64;96833.91;7029295;28;20668;-78
2023/03/14 07:08:09;;;;;;;1.70;1.60;;;;;;;16.28;45.36;96830.75;7029541;28;20225;-79
2023/03/14 07:11:30;;;;;;;1.70;1.60;;;;;;;15.91;45.76;96835.22;7028987;28;20256;-80
2023/03/14 07:14:53;;;;;;;2.30;2.00;;;;;;;15.67;46.43;96824.31;7028395;28;20240;-82
2023/03/14 07:18:15;;;;;;;2.03;1.60;;;;;;;16.09;45.53;96819.00;7030540;28;20214;-80
2023/03/14 07:21:36;;;;;;;2.83;1.70;;;;;;;16.14;45.59;96815.41;7030322;28;20228;-82
2023/03/14 07:24:58;;;;;;;3.00;2.23;;;;;;;17.34;44.10;96824.75;7029501;28;20266;-82
2023/03/14 07:28:19;;;;;;;2.77;2.37;;;;;;;18.11;42.91;96834.94;7031875;28;20228;-82
2023/03/14 07:31:42;;;;;;;3.43;1.70;;;;;;;18.32;41.45;96834.28;7054865;28;20290;-82
2023/03/14 07:35:04;;;;;;;1.50;1.40;;;;;;;18.31;41.24;96799.94;7059213;28;20220;-78
2023/03/14 07:38:26;;;;;;;2.17;1.70;;;;;;;18.51;39.93;96757.81;7059513;28;20689;-80
2023/03/14 07:41:47;;;;;;;1.83;1.70;;;;;;;18.56;40.80;96828.63;7055579;28;20247;-78
2023/03/14 07:45:10;;;;;;;2.97;1.60;;;;;;;18.08;41.76;96840.97;7057257;28;20208;-79
2023/03/14 07:48:32;;;;;;;3.50;1.57;;;;;;;18.53;40.07;96813.69;7060252;28;20224;-79
2023/03/14 07:51:54;;;;;;;3.17;1.93;;;;;;;18.93;39.75;96848.34;7056641;27;20251;-81
2023/03/14 07:55:16;;;;;;;1.97;1.70;;;;;;;18.29;41.70;96839.53;7080966;27;20283;-80
2023/03/14 07:58:37;;;;;;;2.67;1.53;;;;;;;18.61;40.52;96837.53;7087215;27;20679;-80
2023/03/14 08:01:59;;;;;;;2.83;1.40;;;;;;;18.79;40.13;96833.91;7086642;27;20252;-81
2023/03/14 08:05:21;;;;;;;0.90;0.90;;;;;;;17.79;41.90;96848.56;7095335;27;20316;-81
2023/03/14 08:08:43;;;;;;;3.00;1.70;;;;;;;19.09;40.21;96832.41;7076291;27;20287;-79
2023/03/14 08:12:05;;;;;;;1.30;1.20;;;;;;;18.52;40.37;96844.03;7057217;28;20226;-81
2023/03/14 08:15:27;;;;;;;2.87;1.67;;;;;;;17.99;41.65;96838.13;7055958;28;20662;-80
2023/03/14 08:18:49;;;;;;;1.50;1.40;;;;;;;18.00;41.73;96820.69;7056768;28;20295;-81
2023/03/14 08:22:12;;;;;;;2.10;1.37;;;;;;;18.68;40.70;96828.94;7056210;28;20296;-81
2023/03/14 08:25:33;;;;;;;1.80;1.40;;;;;;;18.86;41.49;96819.84;7043678;28;20349;-82
2023/03/14 08:28:55;;;;;;;1.83;1.30;;;;;;;19.67;39.45;96817.69;7032798;28;20250;-80
2023/03/14 08:32:17;;;;;;;2.97;1.53;;;;;;;18.02;41.25;96807.56;7033886;28;20602;-81
2023/03/14 08:35:38;;;;;;;1.50;1.40;;;;;;;18.36;41.38;96821.69;7031973;28;20265;-81
2023/03/14 08:39:03;;;;;;;1.37;1.27;;;;;;;18.49;41.20;96815.41;7032068;28;20292;-81
2023/03/14 08:42:25;;;;;;;1.20;1.10;;;;;;;18.01;41.19;96813.31;7033672;28;20282;-81
2023/03/14 08:45:46;;;;;;;1.70;1.60;;;;;;;17.94;41.39;96812.88;7054042;28;20264;-81
2023/03/14 08:49:08;;;;;;;1.50;1.30;;;;;;;19.24;38.72;96813.81;7063056;28;20307;-81
2023/03/14 08:52:30;;;;;;;2.63;1.40;;;;;;;19.29;39.60;96804.69;7062604;28;20256;-81
2023/03/14 08:55:56;;;;;;;1.30;1.20;;;;;;;18.35;39.55;96767.41;7062410;28;20205;-81
2023/03/14 08:59:17;;;;;;;1.20;1.20;;;;;;;17.85;40.51;96839.22;7064244;28;20200;-81
2023/03/14 09:02:39;;;;;;;1.90;1.60;;;;;;;18.96;39.13;96814.97;7068736;28;20221;-81
2023/03/14 09:06:04;;;;;;;1.90;1.73;;;;;;;19.98;38.54;96834.16;7070821;28;20206;-81
2023/03/14 09:09:27;;;;;;;1.53;1.40;;;;;;;19.55;37.77;96802.97;7072099;28;20225;-82
2023/03/14 09:12:50;;;;;;;2.47;1.60;;;;;;;19.10;38.83;96834.06;7070983;28;20220;-82
2023/03/14 09:16:12;;;;;;;3.10;1.57;;;;;;;18.02;39.57;96834.00;7072924;28;20193;-81
2023/03/14 09:19:33;;;;;;;1.13;1.13;;;;;;;16.72;42.69;96876.78;7061970;28;20288;-82
2023/03/14 09:22:55;;;;;;;1.43;1.10;;;;;;;16.68;43.35;96884.72;7057466;28;20312;-81
2023/03/14 09:26:16;;;;;;;1.67;1.57;;;;;;;16.12;44.85;96891.00;7036960;28;20209;-80
2023/03/14 09:29:39;;;;;;;1.43;1.30;;;;;;;16.21;44.52;96883.88;7035937;28;20917;-80
2023/03/14 09:33:01;;;;;;;1.87;1.40;;;;;;;16.92;44.16;96904.56;7028671;28;20378;-81
2023/03/14 09:36:22;;;;;;;1.50;1.40;;;;;;;17.67;43.09;96897.28;7027814;28;20335;-81
2023/03/14 09:39:44;;;;;;;2.30;1.63;;;;;;;16.88;44.50;96895.34;7034671;28;20272;-84
2023/03/14 09:43:06;;;;;;;1.87;1.73;;;;;;;17.49;42.33;96893.47;7056810;28;20224;-82
2023/03/14 09:46:30;;;;;;;12.47;9.37;;;;;;;17.71;43.08;96896.44;7057176;28;20247;-82
2023/03/14 09:49:52;;;;;;;2.17;1.90;;;;;;;18.19;41.82;96883.34;7055242;28;20698;-79
2023/03/14 09:53:16;;;;;;;1.33;1.30;;;;;;;18.76;40.98;96888.31;7055059;28;20220;-79
2023/03/14 09:56:38;;;;;;;1.53;1.43;;;;;;;18.61;40.64;96915.88;7053359;28;20201;-78
2023/03/14 10:00:04;;;;;;;2.00;1.83;;;;;;;18.69;41.14;96910.53;7053423;28;20223;-80
2023/03/14 10:03:30;;;;;;;2.30;1.70;;;;;;;17.71;41.64;96899.16;7055698;28;20198;-80
2023/03/14 10:06:52;;;;;;;2.50;1.40;;;;;;;18.19;40.73;96869.69;7055776;28;20271;-80
2023/03/14 10:10:17;;;;;;;2.40;1.50;;;;;;;17.93;41.52;96891.13;7055519;28;20224;-82
2023/03/14 10:13:48;;;;;;;1.60;1.00;;;;;;;18.06;41.66;96890.41;7057489;28;20670;-81
2023/03/14 10:17:12;;;;;;;2.40;2.17;;;;;;;17.53;42.31;96883.63;7066795;28;20277;-82
2023/03/14 10:20:36;;;;;;;1.30;1.30;;;;;;;17.30;42.44;96894.53;7061878;28;20366;-83
2023/03/14 10:24:17;;;;;;;1.50;1.40;;;;;;;17.24;42.33;96879.38;7062159;28;20353;-83
2023/03/14 10:27:38;;;;;;;1.00;1.00;;;;;;;18.23;41.28;96868.00;7043037;28;20189;-82
2023/03/14 10:31:00;;;;;;;23.23;2.40;;;;;;;18.04;41.24;96857.13;7056618;28;20317;-83
2023/03/14 10:34:24;;;;;;;1.17;1.10;;;;;;;17.97;41.41;96855.91;7070300;28;20204;-83
2023/03/14 10:37:54;;;;;;;1.20;1.20;;;;;;;19.02;40.46;96879.28;7060542;28;20215;-80
2023/03/14 10:41:18;;;;;;;3.13;2.83;;;;;;;19.04;39.16;96857.13;7036671;28;20722;-81
2023/03/14 10:44:40;;;;;;;1.10;1.00;;;;;;;18.96;38.64;96868.75;7025873;28;20694;-80
2023/03/14 10:48:17;;;;;;;0.80;0.80;;;;;;;18.39;40.82;96855.75;7024762;28;20208;-80
2023/03/14 10:51:38;;;;;;;1.30;1.20;;;;;;;17.58;41.64;96855.47;7027095;28;20307;-81
2023/03/14 10:55:04;;;;;;;1.33;1.23;;;;;;;18.09;41.17;96865.22;7025243;28;20299;-81
2023/03/14 10:58:27;;;;;;;0.80;0.80;;;;;;;18.20;41.07;96865.84;7023283;28;20189;-80
2023/03/14 11:01:53;;;;;;;1.20;1.10;;;;;;;17.92;40.98;96878.63;7031268;28;20370;-81
2023/03/14 11:05:23;;;;;;;0.83;0.83;;;;;;;17.77;40.74;96872.59;7031131;28;20654;-82
2023/03/14 11:08:49;;;;;;;1.23;1.23;;;;;;;16.97;43.14;96896.34;7030245;28;20232;-81
2023/03/14 11:12:28;;;;;;;0.90;0.90;;;;;;;16.67;42.99;96888.56;7055165;28;20224;-82
2023/03/14 11:15:57;;;;;;;1.10;1.10;;;;;;;17.01;42.92;96919.19;7058063;28;20249;-81
2023/03/14 11:19:38;;;;;;;1.27;1.20;;;;;;;17.06;42.98;96910.13;7058677;28;20239;-83
2023/03/14 11:23:03;;;;;;;1.50;1.40;;;;;;;16.38;45.07;96916.84;7046088;28;20280;-82
2023/03/14 11:26:33;;;;;;;1.47;1.37;;;;;;;16.42;45.34;96920.66;7052589;28;20555;-84
2023/03/14 11:30:00;;;;;;;1.20;1.10;;;;;;;16.83;44.71;96916.41;7056739;28;20250;-82
2023/03/14 11:33:26;;;;;;;2.23;1.43;;;;;;;16.45;45.15;96922.81;7058739;28;20195;-81
2023/03/14 11:36:51;;;;;;;1.20;1.20;;;;;;;16.70;46.38;96925.25;7062261;28;20202;-80
2023/03/14 11:40:15;;;;;;;7.20;5.33;;;;;;;16.05;50.17;96934.03;7057209;28;20281;-79
2023/03/14 11:43:42;;;;;;;1.20;1.20;;;;;;;16.07;49.82;96937.28;7056107;28;20685;-79
2023/03/14 11:47:08;;;;;;;1.20;1.20;;;;;;;15.86;50.52;96938.53;7056146;28;20190;-80
2023/03/14 11:50:31;;;;;;;12.00;5.70;;;;;;;16.35;50.51;96947.34;7057984;28;20230;-80
2023/03/14 11:54:01;;;;;;;4.27;3.20;;;;;;;16.36;50.39;96955.25;7057047;28;20255;-80
2023/03/14 11:57:23;;;;;;;58.83;42.57;;;;;;;16.76;48.62;96948.59;7032866;28;20619;-86
2023/03/14 12:00:46;;;;;;;2.30;2.10;;;;;;;16.37;49.34;96956.84;7041616;28;20237;-79
2023/03/14 12:04:14;;;;;;;16.13;11.00;;;;;;;16.53;49.24;96941.22;7060700;28;20302;-78
2023/03/14 12:07:40;;;;;;;0.93;0.93;;;;;;;16.02;49.33;96934.59;7055893;28;20359;-80
2023/03/14 12:11:04;;;;;;;1.03;1.03;;;;;;;15.52;50.24;96973.00;7051703;28;20596;-79
2023/03/14 12:14:28;;;;;;;1.47;1.37;;;;;;;15.75;51.36;96981.25;7055165;28;20207;-78
2023/03/14 12:17:54;;;;;;;1.47;1.30;;;;;;;16.12;50.87;96981.56;7053024;28;20293;-79
2023/03/14 12:21:17;;;;;;;1.60;1.50;;;;;;;15.69;51.44;96981.59;7027539;28;20310;-79
2023/03/14 12:24:39;;;;;;;1.00;1.00;;;;;;;15.77;51.04;97002.72;7029255;28;20368;-79
2023/03/14 12:28:13;;;;;;;2.10;2.00;;;;;;;15.89;50.33;96976.84;7039550;28;20279;-79
2023/03/14 12:31:41;;;;;;;1.23;1.23;;;;;;;16.05;50.35;97012.88;7043310;28;20297;-79
2023/03/14 12:35:08;;;;;;;1.50;1.47;;;;;;;16.11;49.84;97026.13;7061110;28;20336;-79
2023/03/14 12:38:48;;;;;;;1.20;1.10;;;;;;;15.76;51.11;97041.84;7060571;28;20275;-79
2023/03/14 12:42:12;;;;;;;1.13;1.13;;;;;;;15.71;49.77;97053.56;7036388;28;20238;-79
2023/03/14 12:45:34;;;;;;;1.10;1.10;;;;;;;15.83;49.95;97072.25;7031626;28;20665;-79
2023/03/14 12:49:05;;;;;;;1.90;1.60;;;;;;;15.71;48.01;97093.50;7033049;28;20212;-79
2023/03/14 12:52:35;;;;;;;1.10;1.10;;;;;;;14.55;48.22;97130.06;7057965;28;20215;-79
2023/03/14 12:56:02;;;;;;;1.60;1.20;;;;;;;14.16;48.68;97099.91;7044537;28;20765;-78
2023/03/14 12:59:47;;;;;;;5.33;1.37;;;;;;;14.97;46.18;97177.56;7030620;28;20189;-79
2023/03/14 13:03:22;;;;;;;1.50;1.40;;;;;;;14.53;44.52;97181.91;7025974;28;20767;-79
2023/03/14 13:06:50;;;;;;;2.73;1.80;;;;;;;14.28;41.57;97153.91;7042214;28;20257;-79
2023/03/14 13:10:22;;;;;;;2.40;1.67;;;;;;;14.12;41.79;97212.66;7052382;28;20364;-79
2023/03/14 13:13:49;;;;;;;2.53;2.00;;;;;;;14.50;39.15;97214.97;7030291;28;20721;-79
2023/03/14 13:17:11;;;;;;;2.13;1.90;;;;;;;14.85;38.55;97238.59;7029036;28;20228;-78
2023/03/14 13:20:35;;;;;;;1.50;1.40;;;;;;;14.64;38.14;97231.53;7029783;28;20639;-78
2023/03/14 13:23:59;;;;;;;3.53;1.60;;;;;;;14.09;40.22;97224.03;7033289;28;20298;-79
2023/03/14 13:27:23;;;;;;;2.10;1.80;;;;;;;14.39;39.95;97256.69;7054757;28;20289;-79
2023/03/14 13:30:48;;;;;;;4.43;2.00;;;;;;;14.09;39.89;97274.72;7046785;28;20748;-79
2023/03/14 13:34:11;;;;;;;3.07;2.60;;;;;;;13.84;40.92;97272.69;7029700;28;20290;-79
2023/03/14 13:37:40;;;;;;;4.50;1.90;;;;;;;13.76;39.06;97291.31;7029571;28;20201;-78
2023/03/14 13:41:05;;;;;;;2.23;1.90;;;;;;;13.44;38.37;97304.06;7028485;28;20328;-78
2023/03/14 13:44:29;;;;;;;2.07;1.70;;;;;;;14.04;38.54;97318.84;7029584;28;20324;-78
2023/03/14 13:47:52;;;;;;;2.53;1.80;;;;;;;13.44;38.88;97317.63;7028881;28;20569;-78
2023/03/14 13:51:15;;;;;;;5.43;1.50;;;;;;;13.49;37.31;97332.03;7032976;28;20229;-79
2023/03/14 13:54:39;;;;;;;3.20;1.60;;;;;;;13.56;38.18;97361.56;7040394;28;20200;-80
2023/03/14 13:58:01;;;;;;;5.87;4.90;;;;;;;13.81;37.94;97368.00;7039917;28;20237;-79
2023/03/14 14:01:25;;;;;;;2.80;1.50;;;;;;;13.47;38.11;97377.50;7046059;28;20261;-79
2023/03/14 14:04:48;;;;;;;1.93;1.53;;;;;;;13.79;37.60;97391.84;7058798;28;20216;-79
2023/03/14 14:08:12;;;;;;;1.60;1.40;;;;;;;13.63;36.88;97398.19;7060130;28;20211;-80
2023/03/14 14:11:42;;;;;;;1.93;1.80;;;;;;;13.57;36.70;97417.38;7059514;28;20311;-81
2023/03/14 14:15:06;;;;;;;2.10;1.40;;;;;;;13.08;36.51;97443.69;7059445;28;20291;-81
2023/03/14 14:18:29;;;;;;;3.47;1.60;;;;;;;12.58;36.98;97428.72;7059783;28;20422;-81
2023/03/14 14:21:53;;;;;;;5.70;1.50;;;;;;;12.73;36.92;97435.13;7060468;28;20378;-81
2023/03/14 14:25:15;;;;;;;3.27;1.53;;;;;;;13.35;35.32;97468.06;7053939;28;20294;-81
2023/03/14 14:28:38;;;;;;;4.20;1.57;;;;;;;12.80;34.59;97478.22;7033492;28;20271;-81
2023/03/14 14:32:03;;;;;;;2.80;1.60;;;;;;;12.90;35.01;97483.72;7032127;28;20229;-81
2023/03/14 14:35:26;;;;;;;4.67;1.80;;;;;;;13.24;34.29;97491.50;7025474;28;20200;-81
2023/03/14 14:38:58;;;;;;;2.53;1.57;;;;;;;12.93;34.94;97483.25;7032314;28;20233;-81
2023/03/14 14:42:22;;;;;;;2.50;1.40;;;;;;;13.16;34.78;97483.81;7061267;28;20716;-81
2023/03/14 14:45:44;;;;;;;2.57;1.70;;;;;;;12.84;34.68;97479.31;7059402;28;20216;-81
2023/03/14 14:49:10;;;;;;;4.43;1.57;;;;;;;12.31;35.51;97479.97;7063994;28;20616;-80
2023/03/14 14:52:35;;;;;;;3.67;1.83;;;;;;;12.72;35.76;97530.00;7071250;28;20232;-81
2023/03/14 14:55:59;;;;;;;1.60;1.50;;;;;;;12.87;34.93;97527.53;7070881;28;20255;-81
2023/03/14 14:59:27;;;;;;;1.57;1.43;;;;;;;12.84;35.58;97528.00;7070877;28;20206;-81
2023/03/14 15:02:51;;;;;;;5.33;1.97;;;;;;;13.06;35.46;97531.59;7041988;28;20308;-81
2023/03/14 15:06:14;;;;;;;3.17;1.87;;;;;;;12.76;35.80;97521.13;7039954;28;20206;-81
2023/03/14 15:09:36;;;;;;;3.20;1.60;;;;;;;12.36;36.21;97498.13;7039981;28;20242;-81
2023/03/14 15:12:59;;;;;;;5.63;1.77;;;;;;;12.91;35.86;97569.22;7065483;28;20245;-81
2023/03/14 15:16:23;;;;;;;5.13;1.80;;;;;;;12.89;35.74;97566.78;7043360;28;20544;-81
2023/03/14 15:19:44;;;;;;;3.57;2.00;;;;;;;12.85;35.91;97556.69;7043644;28;20200;-81
2023/03/14 15:23:10;;;;;;;2.63;1.97;;;;;;;12.86;35.68;97558.34;7068871;28;20226;-81
2023/03/14 15:26:32;;;;;;;2.13;1.67;;;;;;;13.31;35.13;97569.78;7054075;28;20254;-81
2023/03/14 15:29:55;;;;;;;4.03;2.17;;;;;;;13.28;35.35;97567.59;7041005;28;20236;-81
2023/03/14 15:33:17;;;;;;;10.27;2.57;;;;;;;13.39;35.00;97575.56;7042119;28;20238;-80
2023/03/14 15:36:40;;;;;;;3.83;2.10;;;;;;;13.09;35.09;97523.78;7040894;28;20209;-81
2023/03/14 15:40:02;;;;;;;6.47;3.03;;;;;;;14.19;34.65;97554.78;7041692;28;20300;-81
2023/03/14 15:43:24;;;;;;;5.63;3.00;;;;;;;14.06;33.90;97579.56;7041881;28;20210;-81
2023/03/14 15:46:47;;;;;;;3.33;2.40;;;;;;;13.65;34.61;97590.22;7043172;28;20262;-81
2023/03/14 15:50:10;;;;;;;4.23;2.10;;;;;;;13.32;35.46;97582.25;7041030;28;20379;-81
2023/03/14 15:53:31;;;;;;;3.43;2.70;;;;;;;13.75;34.76;97593.88;7067127;28;20195;-81
2023/03/14 15:56:53;;;;;;;4.77;2.10;;;;;;;13.42;34.92;97602.16;7069410;28;20206;-82
2023/03/14 16:00:17;;;;;;;2.63;1.73;;;;;;;13.69;35.84;97603.00;7060867;28;20339;-80